Decoded Metar for KMYR (MYRTLE BEACH in SC, USA) (IATA:MYR) | Meteo·Mobile Aviation Weather
aviador You're here:

KMYR Decoded Metar

MYRTLE BEACH in SC, USA
Report Time2018-09-18 21:56:00
UTC Time2018-09-18 22:59:26
Flight Rules vfr VFR
Wind300° at 06 kt
W.Decomp.*RWY 36: 3.5 kt HW 4.9 kt LCW
W.Rank300° ranks 25
Current wind is below 300° avg. (7.7)
Visibility9999 m
Phenomena:N/A
Clouds:Scattered 044 Hf
Scattered 060 Hf
Expected CloudBase > 3,200 ft AGL from Temp-Dew spread
CeilingNone
Temp31°C (ISA +16)
Dew Point23°C (62% RH)
Heat Index35.4°C
QNH1010 hPa
Density Alt2,333 ft
Elevation26 ft
Report Wrong Elevation
Raw Report
METAR KMYR 182156Z 30006KT 10SM SCT044 SCT060 31/23 A2982 RMK AO2 PRESFR
SLP098 T03110228=

Extra information for KMYR:More info

Metar Taf Metar & Taf Last 4 Metars F.Rules Stats Wind Profile Meteogram Temp Stats Airport Information Weather charts Add Link Nearby VenuesMetar ALERT Operation Metar Decoded Social comments

AIRNAV info for KMYR